createdAt,value
2024-05-09T00:00:56.618Z,12.45
2024-05-09T00:05:58.903Z,13.20
2024-05-09T00:11:01.805Z,14.52
2024-05-09T00:16:05.315Z,15.80
2024-05-09T00:21:09.394Z,14.23
2024-05-09T00:26:17.614Z,14.95
2024-05-09T00:31:19.702Z,12.27
2024-05-09T00:36:21.764Z,15.25
2024-05-09T00:41:23.827Z,13.45
2024-05-09T00:46:26.374Z,15.30
2024-05-09T00:51:28.517Z,14.15
2024-05-09T00:56:30.583Z,14.85
2024-05-09T01:01:32.972Z,13.00
2024-05-09T01:06:35.060Z,15.02
2024-05-09T01:11:39.232Z,13.38
2024-05-09T01:16:41.942Z,10.32
2024-05-09T01:21:44.291Z,13.45
2024-05-09T01:26:46.307Z,13.32
2024-05-09T01:31:48.659Z,13.80
2024-05-09T01:36:50.728Z,10.80
2024-05-09T01:41:52.788Z,12.07
2024-05-09T01:46:54.793Z,9.98
2024-05-09T01:51:56.788Z,15.20
2024-05-09T01:56:58.775Z,10.45
2024-05-09T02:02:01.045Z,9.30
2024-05-09T02:07:03.367Z,8.55
2024-05-09T02:12:06.058Z,11.30
2024-05-09T02:17:08.395Z,10.20
2024-05-09T02:22:10.444Z,11.48
2024-05-09T02:27:12.509Z,9.50
2024-05-09T02:32:14.794Z,9.25
2024-05-09T02:37:17.057Z,10.57
2024-05-09T02:42:19.135Z,9.15
2024-05-09T02:47:21.419Z,8.95
2024-05-09T02:52:23.586Z,10.82
2024-05-09T02:57:25.581Z,14.98
2024-05-09T03:02:30.842Z,10.32
2024-05-09T03:07:33.099Z,10.38
2024-05-09T03:12:39.053Z,12.90
2024-05-09T03:17:44.636Z,9.55
2024-05-09T03:22:47.022Z,9.57
2024-05-09T03:27:53.459Z,8.07
2024-05-09T03:32:58.160Z,9.05
2024-05-09T03:38:00.728Z,8.52
2024-05-09T03:43:02.993Z,10.15
2024-05-09T03:48:06.360Z,6.72
2024-05-09T03:53:23.032Z,10.27
2024-05-09T03:58:27.755Z,7.57
2024-05-09T04:03:30.382Z,7.15
2024-05-09T04:08:33.028Z,9.25
2024-05-09T04:13:40.535Z,7.60
2024-05-09T04:18:42.832Z,8.45
2024-05-09T04:23:45.148Z,9.52
2024-05-09T04:28:47.501Z,12.00
2024-05-09T04:33:52.832Z,9.52
2024-05-09T04:38:55.209Z,8.50
2024-05-09T04:43:57.463Z,9.95
2024-05-09T04:48:59.722Z,10.60
2024-05-09T04:54:02.147Z,10.82
2024-05-09T04:59:09.874Z,10.88
2024-05-09T05:04:12.111Z,8.73
2024-05-09T05:09:14.300Z,13.70
2024-05-09T05:14:17.564Z,11.70
2024-05-09T05:19:19.732Z,11.13
2024-05-09T05:24:21.912Z,14.90
2024-05-09T05:29:23.937Z,14.68
2024-05-09T05:34:25.989Z,15.98
2024-05-09T05:39:30.571Z,15.70
2024-05-09T05:44:32.744Z,19.40
2024-05-09T05:49:34.973Z,19.17
2024-05-09T05:54:37.085Z,25.55
2024-05-09T05:59:42.245Z,28.20
2024-05-09T06:04:44.494Z,26.63
2024-05-09T06:09:48.299Z,30.30
2024-05-09T06:14:51.974Z,30.73
2024-05-09T06:19:54.414Z,32.72
2024-05-09T06:24:56.570Z,33.90
2024-05-09T06:29:58.647Z,39.40
2024-05-09T06:35:00.871Z,45.38
2024-05-09T06:40:17.362Z,49.70
2024-05-09T06:50:24.403Z,43.80
2024-05-09T06:55:30.037Z,47.30
2024-05-09T07:00:38.600Z,40.03
2024-05-09T07:05:43.288Z,28.25
2024-05-09T07:10:48.529Z,22.67
2024-05-09T07:15:50.773Z,24.23
2024-05-09T07:20:54.799Z,21.35
2024-05-09T07:25:57.932Z,18.80
2024-05-09T07:31:00.021Z,17.70
2024-05-09T07:36:02.064Z,17.35
2024-05-09T07:41:04.295Z,15.02
2024-05-09T07:47:04.547Z,15.40
2024-05-09T07:56:33.590Z,22.13
2024-05-09T08:01:35.840Z,12.98
2024-05-09T08:06:38.077Z,13.02
2024-05-09T08:11:40.189Z,13.55
2024-05-09T08:16:42.215Z,15.45
2024-05-09T08:21:44.269Z,12.65
2024-05-09T08:26:46.291Z,11.48
2024-05-09T08:31:48.371Z,15.68
2024-05-09T08:36:50.503Z,7.97
2024-05-09T08:41:53.595Z,10.05
2024-05-09T08:46:57.647Z,9.27
2024-05-09T08:51:59.756Z,8.95
2024-05-09T08:57:04.427Z,7.65
2024-05-09T09:02:10.039Z,7.47
2024-05-09T09:07:12.921Z,9.30
2024-05-09T09:12:17.827Z,5.45
2024-05-09T09:22:22.160Z,7.20
2024-05-09T09:27:24.299Z,8.13
2024-05-09T09:32:29.283Z,7.25
2024-05-09T09:37:32.364Z,10.82
2024-05-09T09:42:37.307Z,6.95
2024-05-09T09:47:41.575Z,7.75
2024-05-09T09:52:46.652Z,9.18
2024-05-09T09:57:52.980Z,8.75
2024-05-09T10:02:55.231Z,8.95
2024-05-09T10:07:58.870Z,8.82
2024-05-09T10:13:06.034Z,11.25
2024-05-09T10:18:08.653Z,9.40
2024-05-09T10:23:32.452Z,7.68
2024-05-09T10:28:42.202Z,8.70
2024-05-09T10:33:50.944Z,7.55
2024-05-09T10:38:55.540Z,11.25
2024-05-09T10:43:57.974Z,10.07
2024-05-09T10:49:03.337Z,9.52
2024-05-09T10:54:07.864Z,12.32
2024-05-09T10:59:12.647Z,12.63
2024-05-09T11:04:24.330Z,9.55
2024-05-09T11:09:56.279Z,9.75
2024-05-09T11:15:07.839Z,11.65
2024-05-09T11:20:22.879Z,20.42
2024-05-09T11:25:33.257Z,9.50
2024-05-09T11:30:35.477Z,9.68
2024-05-09T11:35:37.722Z,11.50
2024-05-09T11:40:40.103Z,10.30
2024-05-09T11:45:42.578Z,8.60
2024-05-09T11:50:47.389Z,10.38
2024-05-09T11:55:50.906Z,10.55
2024-05-09T12:00:53.207Z,10.50
2024-05-09T12:06:21.582Z,10.52
2024-05-09T12:11:24.048Z,10.43
2024-05-09T12:16:26.601Z,10.82
2024-05-09T12:21:32.768Z,11.77
2024-05-09T12:26:35.346Z,12.73
2024-05-09T12:31:40.295Z,8.68
2024-05-09T12:36:43.335Z,10.82
2024-05-09T12:41:50.931Z,8.88
2024-05-09T12:46:53.056Z,9.90
2024-05-09T12:58:54.392Z,8.27
2024-05-09T13:06:36.299Z,7.15
2024-05-09T13:12:05.453Z,7.50
2024-05-09T13:18:54.088Z,7.53
2024-05-09T16:23:21.192Z,10.90
2024-05-09T16:35:18.388Z,9.38
2024-05-09T16:40:34.323Z,10.90
2024-05-09T16:45:46.408Z,10.63
2024-05-09T16:50:52.740Z,9.65
2024-05-09T16:56:02.203Z,10.57
2024-05-09T17:01:14.818Z,8.80
2024-05-09T17:06:29.043Z,9.43
2024-05-09T17:11:36.081Z,8.37
2024-05-09T17:16:38.467Z,9.27
2024-05-09T17:21:45.127Z,8.95
2024-05-09T17:26:54.641Z,12.88
2024-05-09T17:32:00.058Z,12.98
2024-05-09T17:37:06.519Z,13.18
2024-05-09T17:42:14.637Z,12.32
2024-05-09T17:47:35.918Z,10.32
2024-05-09T17:58:25.791Z,22.23
2024-05-09T18:03:30.024Z,11.57
2024-05-09T18:08:35.480Z,10.87
2024-05-09T18:13:41.899Z,12.23
2024-05-09T18:18:44.115Z,14.63
2024-05-09T18:23:58.775Z,12.48
2024-05-09T18:29:03.215Z,13.63
2024-05-09T18:34:06.010Z,12.55
2024-05-09T18:39:08.882Z,13.75
2024-05-09T18:44:20.726Z,11.63
2024-05-09T18:49:25.797Z,10.48
2024-05-09T18:54:33.619Z,7.88
2024-05-09T18:59:38.910Z,7.38
2024-05-09T19:11:40.134Z,8.90
2024-05-09T19:16:45.174Z,8.57
2024-05-09T19:21:50.276Z,10.35
2024-05-09T19:26:52.789Z,10.50
2024-05-09T19:38:18.824Z,8.73
2024-05-09T19:44:03.307Z,8.95
2024-05-09T19:49:35.141Z,9.77
2024-05-09T20:06:58.315Z,14.35
2024-05-09T20:12:37.928Z,15.70
2024-05-09T20:24:14.457Z,12.18
2024-05-09T20:29:28.982Z,16.25
2024-05-09T20:48:48.623Z,13.32
2024-05-09T20:54:17.564Z,13.10
2024-05-09T20:59:52.955Z,15.18
2024-05-09T21:11:17.066Z,12.80
2024-05-09T21:36:21.162Z,12.50
2024-05-09T21:41:25.028Z,14.05
2024-05-09T21:51:49.786Z,14.15
2024-05-09T21:56:53.035Z,13.05
2024-05-09T22:02:01.751Z,14.13
2024-05-09T22:07:10.314Z,15.48
2024-05-09T22:12:13.078Z,10.75
2024-05-09T22:17:15.432Z,13.10
2024-05-09T22:22:17.635Z,13.10
2024-05-09T22:27:26.423Z,13.63
2024-05-09T22:32:29.531Z,13.68
2024-05-09T22:37:31.794Z,12.98
2024-05-09T22:42:34.019Z,15.93
2024-05-09T22:47:36.367Z,11.93
2024-05-09T22:52:40.013Z,14.65
2024-05-09T22:57:52.557Z,12.52
2024-05-09T23:02:54.921Z,13.48
2024-05-09T23:07:58.507Z,17.73
2024-05-09T23:13:03.479Z,16.08
2024-05-09T23:18:06.747Z,14.60
2024-05-09T23:23:12.102Z,15.80
2024-05-09T23:28:16.711Z,14.33
2024-05-09T23:33:23.277Z,17.63
2024-05-09T23:38:25.662Z,15.15
2024-05-09T23:43:30.252Z,15.90
2024-05-09T23:48:33.739Z,17.60
2024-05-09T23:58:52.023Z,14.43
